createdAt,value
2019-05-18T00:02:22.696Z,44.03
2019-05-18T00:04:52.017Z,37.57
2019-05-18T00:07:21.401Z,38.40
2019-05-18T00:09:50.872Z,32.87
2019-05-18T00:12:20.275Z,36.63
2019-05-18T00:14:49.593Z,32.20
2019-05-18T00:17:25.196Z,28.67
2019-05-18T00:19:50.918Z,28.77
2019-05-18T00:22:20.277Z,28.40
2019-05-18T00:24:49.819Z,27.07
2019-05-18T00:27:19.401Z,30.27
2019-05-18T00:29:48.615Z,23.90
2019-05-18T00:32:18.018Z,23.23
2019-05-18T00:34:47.520Z,27.07
2019-05-18T00:37:16.717Z,26.83
2019-05-18T00:39:46.125Z,38.10
2019-05-18T00:42:15.351Z,23.83
2019-05-18T00:44:44.784Z,33.40
2019-05-18T00:47:13.959Z,20.93
2019-05-18T00:49:43.359Z,35.77
2019-05-18T00:52:12.588Z,28.67
2019-05-18T00:54:41.929Z,35.10
2019-05-18T00:57:11.284Z,24.70
2019-05-18T00:59:40.562Z,21.00
2019-05-18T01:02:12.984Z,21.53
2019-05-18T01:04:42.181Z,24.10
2019-05-18T01:07:11.433Z,24.50
2019-05-18T01:09:40.832Z,21.63
2019-05-18T01:12:11.401Z,23.00
2019-05-18T01:14:40.704Z,21.60
2019-05-18T01:17:09.960Z,21.20
2019-05-18T01:19:39.407Z,20.43
2019-05-18T01:22:08.609Z,23.33
2019-05-18T01:24:37.982Z,24.37
2019-05-18T01:27:07.242Z,25.23
2019-05-18T01:29:36.679Z,19.87
2019-05-18T01:32:05.978Z,26.13
2019-05-18T01:34:35.425Z,32.30
2019-05-18T01:37:04.986Z,29.13
2019-05-18T01:39:34.263Z,23.67
2019-05-18T01:42:04.368Z,27.57
2019-05-18T01:44:33.648Z,32.80
2019-05-18T01:47:03.010Z,27.63
2019-05-18T01:49:32.330Z,43.77
2019-05-18T01:52:01.549Z,26.17
2019-05-18T01:54:30.752Z,22.30
2019-05-18T01:56:59.968Z,22.30
2019-05-18T01:59:29.390Z,16.60
2019-05-18T02:01:58.920Z,16.13
2019-05-18T02:04:28.414Z,11.43
2019-05-18T02:06:58.000Z,13.30
2019-05-18T02:09:27.428Z,17.63
2019-05-18T02:11:56.950Z,12.40
2019-05-18T02:14:26.326Z,16.40
2019-05-18T02:16:55.644Z,14.63
2019-05-18T02:19:25.306Z,13.83
2019-05-18T02:21:54.582Z,15.00
2019-05-18T02:24:23.934Z,14.50
2019-05-18T02:26:53.151Z,13.13
2019-05-18T02:29:22.327Z,15.90
2019-05-18T02:31:51.614Z,13.13
2019-05-18T02:34:20.811Z,14.53
2019-05-18T02:36:50.198Z,18.87
2019-05-18T02:39:19.670Z,17.93
2019-05-18T02:41:49.058Z,20.87
2019-05-18T02:44:18.387Z,18.23
2019-05-18T02:46:47.622Z,19.00
2019-05-18T02:49:16.847Z,20.27
2019-05-18T02:51:46.159Z,17.43
2019-05-18T02:54:15.448Z,21.70
2019-05-18T02:56:44.849Z,17.13
2019-05-18T02:59:14.194Z,20.93
2019-05-18T03:01:43.575Z,21.37
2019-05-18T03:04:12.775Z,21.40
2019-05-18T03:06:43.108Z,22.43
2019-05-18T03:09:12.366Z,19.33
2019-05-18T03:11:42.290Z,17.80
2019-05-18T03:14:11.671Z,18.20
2019-05-18T03:16:41.605Z,17.27
2019-05-18T03:19:24.201Z,16.57
2019-05-18T03:21:53.546Z,16.77
2019-05-18T03:24:22.885Z,21.17
2019-05-18T03:26:52.242Z,23.37
2019-05-18T03:29:29.652Z,23.40
2019-05-18T03:31:59.021Z,26.33
2019-05-18T03:34:28.185Z,20.67
2019-05-18T03:36:57.547Z,20.73
2019-05-18T03:39:26.964Z,21.20
2019-05-18T03:41:56.287Z,20.37
2019-05-18T03:44:25.552Z,20.73
2019-05-18T03:46:54.933Z,15.63
2019-05-18T03:49:27.619Z,15.77
2019-05-18T03:51:56.236Z,15.70
2019-05-18T03:54:25.645Z,15.13
2019-05-18T03:56:54.903Z,13.63
2019-05-18T03:59:24.146Z,11.00
2019-05-18T04:01:53.404Z,10.57
2019-05-18T04:04:22.733Z,13.47
2019-05-18T04:06:53.046Z,13.67
2019-05-18T04:09:22.319Z,13.97
2019-05-18T04:11:51.529Z,12.07
2019-05-18T04:14:20.801Z,12.60
2019-05-18T04:16:50.102Z,15.17
2019-05-18T04:19:19.423Z,12.70
2019-05-18T04:21:49.731Z,11.93
2019-05-18T04:24:18.971Z,14.47
2019-05-18T04:26:48.208Z,15.17
2019-05-18T04:29:17.469Z,9.43
2019-05-18T04:31:46.671Z,13.10
2019-05-18T04:34:16.031Z,15.30
2019-05-18T04:36:45.253Z,10.03
2019-05-18T04:39:14.553Z,11.87
2019-05-18T04:41:43.896Z,12.53
2019-05-18T04:44:13.152Z,11.90
2019-05-18T04:46:42.377Z,10.40
2019-05-18T04:49:11.647Z,9.33
2019-05-18T04:51:40.964Z,9.47
2019-05-18T04:54:10.254Z,8.53
2019-05-18T04:56:42.887Z,9.00
2019-05-18T04:59:10.573Z,10.10
2019-05-18T05:01:39.900Z,12.13
2019-05-18T05:04:09.344Z,8.83
2019-05-18T05:06:38.640Z,8.40
2019-05-18T05:09:10.050Z,7.57
2019-05-18T05:11:39.515Z,8.37
2019-05-18T05:14:09.084Z,8.23
2019-05-18T05:16:38.414Z,8.73
2019-05-18T05:19:08.804Z,8.63
2019-05-18T05:21:38.123Z,8.63
2019-05-18T05:24:08.487Z,9.67
2019-05-18T05:26:39.692Z,9.83
2019-05-18T05:29:08.677Z,7.60
2019-05-18T05:31:37.850Z,8.17
2019-05-18T05:34:07.050Z,7.73
2019-05-18T05:36:36.321Z,10.40
2019-05-18T05:39:06.811Z,8.50
2019-05-18T05:41:36.078Z,7.90
2019-05-18T05:44:05.430Z,8.33
2019-05-18T05:46:37.308Z,8.20
2019-05-18T05:49:05.668Z,7.90
2019-05-18T05:51:36.123Z,10.53
2019-05-18T05:54:05.399Z,7.70
2019-05-18T05:56:34.630Z,7.50
2019-05-18T05:59:04.086Z,7.80
2019-05-18T06:01:33.469Z,8.50
2019-05-18T06:04:02.659Z,10.77
2019-05-18T06:06:32.904Z,8.30
2019-05-18T06:09:02.254Z,7.70
2019-05-18T06:11:31.677Z,7.60
2019-05-18T06:14:01.041Z,8.53
2019-05-18T06:16:30.322Z,9.90
2019-05-18T06:18:59.820Z,6.93
2019-05-18T06:21:29.123Z,8.60
2019-05-18T06:23:58.515Z,8.27
2019-05-18T06:26:27.800Z,9.90
2019-05-18T06:28:57.117Z,10.10
2019-05-18T06:31:26.425Z,8.47
2019-05-18T06:33:55.762Z,9.73
2019-05-18T06:36:25.191Z,9.40
2019-05-18T06:38:54.417Z,8.43
2019-05-18T06:41:23.691Z,8.50
2019-05-18T06:43:53.015Z,9.60
2019-05-18T06:46:22.434Z,8.60
2019-05-18T06:48:51.717Z,8.93
2019-05-18T06:51:21.016Z,10.47
2019-05-18T06:53:50.477Z,9.00
2019-05-18T06:56:19.935Z,9.60
2019-05-18T06:58:49.687Z,8.70
2019-05-18T07:01:18.995Z,8.57
2019-05-18T07:03:48.274Z,8.20
2019-05-18T07:06:17.565Z,8.70
2019-05-18T07:08:47.914Z,8.10
2019-05-18T07:11:17.265Z,8.67
2019-05-18T07:13:46.571Z,9.20
2019-05-18T07:16:16.876Z,9.40
2019-05-18T07:18:46.396Z,10.20
2019-05-18T07:21:22.293Z,8.17
2019-05-18T07:23:46.639Z,10.50
2019-05-18T07:26:17.225Z,9.27
2019-05-18T07:28:46.493Z,9.10
2019-05-18T07:31:15.830Z,9.10
2019-05-18T07:33:45.372Z,11.80
2019-05-18T07:36:15.831Z,9.67
2019-05-18T07:38:45.087Z,8.20
2019-05-18T07:41:14.536Z,8.30
2019-05-18T07:43:44.099Z,8.73
2019-05-18T07:46:13.467Z,10.03
2019-05-18T07:48:42.969Z,9.67
2019-05-18T07:51:12.333Z,8.67
2019-05-18T07:53:41.846Z,9.03
2019-05-18T07:56:11.091Z,8.43
2019-05-18T07:58:40.520Z,8.40
2019-05-18T08:01:10.950Z,9.10
2019-05-18T08:03:40.164Z,9.20
2019-05-18T08:06:09.518Z,9.43
2019-05-18T08:08:40.674Z,8.73
2019-05-18T08:11:10.010Z,8.93
2019-05-18T08:13:39.306Z,8.83
2019-05-18T08:16:08.613Z,9.30
2019-05-18T08:18:38.036Z,7.67
2019-05-18T08:21:07.246Z,8.27
2019-05-18T08:23:36.870Z,9.70
2019-05-18T08:26:06.229Z,9.27
2019-05-18T08:28:45.002Z,10.30
2019-05-18T08:31:14.284Z,8.50
2019-05-18T08:33:43.585Z,7.80
2019-05-18T08:36:12.745Z,7.50
2019-05-18T08:38:41.996Z,7.20
2019-05-18T08:41:11.256Z,8.07
2019-05-18T08:43:40.539Z,8.80
2019-05-18T08:46:09.960Z,8.70
2019-05-18T08:48:39.122Z,7.70
2019-05-18T08:51:08.341Z,8.97
2019-05-18T08:53:37.586Z,7.80
2019-05-18T08:56:07.056Z,8.60
2019-05-18T08:58:36.395Z,9.50
2019-05-18T09:01:05.684Z,9.33
2019-05-18T09:03:35.026Z,7.80
2019-05-18T09:06:04.595Z,7.20
2019-05-18T09:08:33.919Z,7.70
2019-05-18T09:11:03.219Z,7.10
2019-05-18T09:13:32.473Z,6.73
2019-05-18T09:16:01.723Z,7.67
2019-05-18T09:18:31.243Z,7.07
2019-05-18T09:21:00.684Z,7.03
2019-05-18T09:23:29.990Z,7.80
2019-05-18T09:25:59.180Z,6.60
2019-05-18T09:28:28.443Z,7.40
2019-05-18T09:30:57.819Z,8.10
2019-05-18T09:33:27.041Z,7.57
2019-05-18T09:35:56.234Z,7.33
2019-05-18T09:38:25.503Z,9.53
2019-05-18T09:40:54.669Z,7.63
2019-05-18T09:43:24.035Z,7.53
2019-05-18T09:45:53.312Z,8.03
2019-05-18T09:48:23.020Z,7.43
2019-05-18T09:50:52.345Z,6.80
2019-05-18T09:53:29.601Z,7.97
2019-05-18T09:55:53.847Z,8.10
2019-05-18T09:58:23.188Z,7.00
2019-05-18T10:00:52.550Z,7.17
2019-05-18T10:03:21.939Z,7.20
2019-05-18T10:05:51.182Z,6.63
2019-05-18T10:08:20.539Z,7.80
2019-05-18T10:10:50.209Z,7.63
2019-05-18T10:13:19.434Z,7.13
2019-05-18T10:15:48.640Z,7.47
2019-05-18T10:18:17.949Z,7.07
2019-05-18T10:20:47.320Z,9.40
2019-05-18T10:23:16.647Z,7.00
2019-05-18T10:25:46.044Z,7.00
2019-05-18T10:28:15.370Z,6.80
2019-05-18T10:30:45.030Z,7.00
2019-05-18T10:33:14.402Z,7.50
2019-05-18T10:35:43.937Z,6.47
2019-05-18T10:38:14.057Z,7.70
2019-05-18T10:40:43.606Z,6.57
2019-05-18T10:43:13.045Z,7.57
2019-05-18T10:45:45.077Z,6.20
2019-05-18T10:48:14.008Z,7.27
2019-05-18T10:50:44.389Z,7.03
2019-05-18T10:53:27.894Z,6.53
2019-05-18T10:55:45.557Z,6.03
2019-05-18T10:58:14.911Z,6.30
2019-05-18T11:00:44.238Z,7.73
2019-05-18T11:03:13.630Z,7.10
2019-05-18T11:05:43.107Z,9.00
2019-05-18T11:08:12.563Z,7.10
2019-05-18T11:10:42.223Z,6.80
2019-05-18T11:13:11.563Z,6.97
2019-05-18T11:15:41.053Z,6.63
2019-05-18T11:18:10.581Z,6.77
2019-05-18T11:20:39.937Z,7.80
2019-05-18T11:23:09.329Z,7.00
2019-05-18T11:25:38.676Z,7.80
2019-05-18T11:28:08.202Z,16.67
2019-05-18T11:30:37.599Z,15.80
2019-05-18T11:33:06.947Z,24.77
2019-05-18T11:35:36.192Z,17.00
2019-05-18T11:38:05.702Z,11.53
2019-05-18T11:40:35.102Z,10.53
2019-05-18T11:43:04.592Z,11.20
2019-05-18T11:45:34.352Z,12.37
2019-05-18T11:48:03.886Z,8.57
2019-05-18T11:50:33.454Z,8.23
2019-05-18T11:53:02.923Z,8.40
2019-05-18T11:55:32.511Z,8.43
2019-05-18T11:58:01.862Z,8.90
2019-05-18T12:00:31.389Z,9.80
2019-05-18T12:03:00.819Z,10.00
2019-05-18T12:05:30.260Z,9.90
2019-05-18T12:07:59.655Z,10.13
2019-05-18T12:10:29.052Z,10.17
2019-05-18T12:12:58.383Z,10.87
2019-05-18T12:15:27.893Z,10.57
2019-05-18T12:17:57.142Z,17.87
2019-05-18T12:20:26.545Z,10.30
2019-05-18T12:22:55.984Z,10.70
2019-05-18T12:25:25.586Z,8.30
2019-05-18T12:27:55.162Z,8.87
2019-05-18T12:30:25.460Z,7.93
2019-05-18T12:33:01.984Z,7.60
2019-05-18T12:35:32.208Z,7.80
2019-05-18T12:38:01.503Z,9.20
2019-05-18T12:40:30.940Z,8.40
2019-05-18T12:43:00.320Z,7.83
2019-05-18T12:45:29.870Z,8.67
2019-05-18T12:47:59.205Z,8.00
2019-05-18T12:53:56.046Z,8.37
2019-05-18T12:56:52.289Z,7.13
2019-05-18T12:59:21.747Z,7.50
2019-05-18T13:02:04.040Z,7.60
2019-05-18T13:04:33.462Z,8.50
2019-05-18T13:07:19.684Z,7.90
2019-05-18T13:09:49.087Z,7.73
2019-05-18T13:12:18.454Z,8.40
2019-05-18T13:14:47.836Z,8.00
2019-05-18T13:17:17.196Z,8.80
2019-05-18T13:19:46.615Z,7.93
2019-05-18T13:22:16.052Z,8.20
2019-05-18T13:24:45.850Z,6.80
2019-05-18T13:27:15.246Z,8.00
2019-05-18T13:29:44.667Z,7.80
2019-05-18T13:32:14.110Z,7.70
2019-05-18T13:34:43.503Z,8.13
2019-05-18T13:37:12.979Z,8.17
2019-05-18T13:39:42.447Z,7.97
2019-05-18T13:42:11.828Z,7.90
2019-05-18T13:44:41.195Z,8.00
2019-05-18T13:47:10.619Z,8.37
2019-05-18T13:49:39.996Z,8.77
2019-05-18T13:52:09.499Z,9.33
2019-05-18T13:54:39.010Z,8.27
2019-05-18T13:57:09.577Z,8.60
2019-05-18T13:59:42.150Z,8.03
2019-05-18T14:02:11.743Z,8.77
2019-05-18T14:04:41.224Z,9.50
2019-05-18T14:07:10.674Z,9.83
2019-05-18T14:09:40.110Z,9.87
2019-05-18T14:12:09.532Z,8.90
2019-05-18T14:14:39.032Z,9.00
2019-05-18T14:17:08.822Z,8.93
2019-05-18T14:19:38.344Z,8.43
2019-05-18T14:22:07.648Z,10.17
2019-05-18T14:24:36.868Z,9.50
2019-05-18T14:27:06.172Z,8.40
2019-05-18T14:29:35.508Z,9.60
2019-05-18T14:32:04.843Z,10.70
2019-05-18T14:34:34.096Z,11.00
2019-05-18T14:37:03.335Z,9.90
2019-05-18T14:39:32.884Z,10.33
2019-05-18T14:42:05.716Z,9.83
2019-05-18T14:44:35.480Z,9.73
2019-05-18T14:47:05.339Z,10.20
2019-05-18T14:49:34.993Z,9.90
2019-05-18T14:52:04.450Z,10.40
2019-05-18T14:54:33.669Z,10.33
2019-05-18T14:57:02.880Z,9.40
2019-05-18T14:59:32.172Z,9.13
2019-05-18T15:02:02.963Z,10.20
2019-05-18T15:04:32.196Z,9.87
2019-05-18T15:07:01.956Z,10.20
2019-05-18T15:09:34.538Z,10.50
2019-05-18T15:12:04.032Z,9.07
2019-05-18T15:14:33.389Z,10.93
2019-05-18T15:17:02.759Z,9.57
2019-05-18T15:19:32.271Z,10.57
2019-05-18T15:22:01.568Z,10.80
2019-05-18T15:24:31.007Z,9.93
2019-05-18T15:27:00.811Z,9.50
2019-05-18T15:29:30.340Z,10.27
2019-05-18T15:31:59.537Z,10.53
2019-05-18T15:34:29.293Z,10.40
2019-05-18T15:36:58.607Z,11.30
2019-05-18T15:39:27.832Z,11.53
2019-05-18T15:41:57.011Z,10.77
2019-05-18T15:44:27.195Z,10.95
2019-05-18T15:46:56.522Z,10.90
2019-05-18T15:49:26.220Z,9.67
2019-05-18T15:51:55.475Z,10.73
2019-05-18T15:54:24.671Z,9.20
2019-05-18T15:56:53.906Z,9.93
2019-05-18T15:59:23.209Z,11.30
2019-05-18T16:01:52.440Z,10.60
2019-05-18T16:04:21.789Z,11.53
2019-05-18T16:06:52.329Z,10.53
2019-05-18T16:09:21.781Z,9.70
2019-05-18T16:11:52.430Z,10.93
2019-05-18T16:14:21.792Z,10.67
2019-05-18T16:16:54.787Z,10.10
2019-05-18T16:19:22.526Z,11.27
2019-05-18T16:21:53.164Z,10.00
2019-05-18T16:24:22.435Z,11.10
2019-05-18T16:26:51.793Z,12.00
2019-05-18T16:29:21.082Z,11.23
2019-05-18T16:31:50.360Z,10.57
2019-05-18T16:34:19.591Z,11.17
2019-05-18T16:36:48.967Z,13.10
2019-05-18T16:39:18.273Z,11.03
2019-05-18T16:41:47.568Z,11.07
2019-05-18T16:44:17.379Z,11.90
2019-05-18T16:46:46.736Z,11.23
2019-05-18T16:49:16.010Z,11.67
2019-05-18T16:51:45.282Z,11.57
2019-05-18T16:54:14.523Z,11.17
2019-05-18T16:56:43.901Z,12.33
2019-05-18T16:59:13.313Z,11.67
2019-05-18T17:01:42.530Z,11.00
2019-05-18T17:04:11.806Z,11.80
2019-05-18T17:06:41.165Z,11.53
2019-05-18T17:09:11.630Z,11.03
2019-05-18T17:11:40.950Z,11.80
2019-05-18T17:14:10.251Z,11.43
2019-05-18T17:16:39.641Z,9.87
2019-05-18T17:19:09.130Z,11.40
2019-05-18T17:21:56.494Z,11.97
2019-05-18T17:24:26.041Z,11.40
2019-05-18T17:30:35.413Z,11.50
2019-05-18T17:33:04.744Z,12.60
2019-05-18T17:35:34.135Z,13.37
2019-05-18T17:38:03.431Z,13.30
2019-05-18T17:40:35.987Z,12.70
2019-05-18T17:43:05.307Z,12.87
2019-05-18T17:45:34.726Z,13.20
2019-05-18T17:48:04.547Z,12.70
2019-05-18T17:50:34.119Z,17.67
2019-05-18T17:53:05.449Z,14.67
2019-05-18T17:55:35.121Z,13.40
2019-05-18T17:58:04.968Z,12.63
2019-05-18T18:00:39.497Z,13.23
2019-05-18T18:03:08.759Z,13.47
2019-05-18T18:05:38.150Z,15.33
2019-05-18T18:08:07.522Z,13.63
2019-05-18T18:10:36.956Z,13.50
2019-05-18T18:13:09.415Z,15.37
2019-05-18T18:15:37.541Z,14.27
2019-05-18T18:18:08.179Z,13.50
2019-05-18T18:20:38.324Z,14.03
2019-05-18T18:23:07.659Z,15.50
2019-05-18T18:25:37.165Z,13.60
2019-05-18T18:28:06.613Z,13.40
2019-05-18T18:30:35.935Z,14.00
2019-05-18T18:33:05.271Z,13.00
2019-05-18T18:35:34.664Z,15.40
2019-05-18T18:38:06.063Z,13.53
2019-05-18T18:40:35.707Z,16.30
2019-05-18T18:43:04.944Z,15.43
2019-05-18T18:45:34.448Z,14.57
2019-05-18T18:48:06.443Z,15.83
2019-05-18T18:50:35.921Z,15.93
2019-05-18T18:53:05.411Z,17.80
2019-05-18T18:55:34.939Z,17.53
2019-05-18T18:58:07.080Z,19.73
2019-05-18T19:00:36.820Z,17.23
2019-05-18T19:03:06.113Z,17.07
2019-05-18T19:05:35.437Z,19.30
2019-05-18T19:08:04.766Z,17.97
2019-05-18T19:10:34.187Z,21.13
2019-05-18T19:13:04.494Z,20.17
2019-05-18T19:15:34.026Z,18.77
2019-05-18T19:18:04.627Z,18.00
2019-05-18T19:20:34.115Z,17.47
2019-05-18T19:23:03.801Z,17.93
2019-05-18T19:25:33.439Z,18.33
2019-05-18T19:28:05.806Z,18.80
2019-05-18T19:30:35.278Z,20.20
2019-05-18T19:33:04.969Z,24.40
2019-05-18T19:35:34.526Z,19.67
2019-05-18T19:38:03.859Z,24.17
2019-05-18T19:40:33.307Z,29.10
2019-05-18T19:43:02.922Z,24.10
2019-05-18T19:45:32.180Z,19.60
2019-05-18T19:48:02.619Z,20.60
2019-05-18T19:50:32.097Z,20.60
2019-05-18T19:53:01.307Z,17.13
2019-05-18T19:55:30.760Z,17.57
2019-05-18T19:58:08.564Z,17.30
2019-05-18T20:00:31.465Z,25.07
2019-05-18T20:03:02.038Z,33.77
2019-05-18T20:05:31.520Z,34.60
2019-05-18T20:08:01.298Z,37.00
2019-05-18T20:10:30.925Z,32.07
2019-05-18T20:13:00.533Z,35.70
2019-05-18T20:15:30.380Z,32.43
2019-05-18T20:17:59.876Z,31.00
2019-05-18T20:20:29.291Z,27.70
2019-05-18T20:22:58.762Z,28.07
2019-05-18T20:25:28.257Z,27.30
2019-05-18T20:27:57.651Z,27.47
2019-05-18T20:30:27.003Z,25.73
2019-05-18T20:32:56.506Z,26.80
2019-05-18T20:35:26.054Z,29.80
2019-05-18T20:37:55.510Z,26.83
2019-05-18T20:40:25.002Z,32.97
2019-05-18T20:42:56.546Z,26.90
2019-05-18T20:45:25.976Z,26.57
2019-05-18T20:47:55.359Z,28.50
2019-05-18T20:50:24.640Z,36.40
2019-05-18T20:52:54.020Z,31.33
2019-05-18T20:55:23.467Z,32.93
2019-05-18T20:57:53.906Z,27.93
2019-05-18T21:00:23.466Z,26.20
2019-05-18T21:02:53.887Z,29.20
2019-05-18T21:05:23.482Z,25.70
2019-05-18T21:07:54.106Z,27.30
2019-05-18T21:10:24.824Z,27.40
2019-05-18T21:12:54.236Z,24.17
2019-05-18T21:15:25.885Z,25.03
2019-05-18T21:17:56.394Z,26.10
2019-05-18T21:20:25.841Z,24.93
2019-05-18T21:22:55.209Z,29.90
2019-05-18T21:25:25.897Z,29.03
2019-05-18T21:27:58.552Z,31.50
2019-05-18T21:30:28.444Z,37.50
2019-05-18T21:32:58.364Z,41.67
2019-05-18T21:35:28.522Z,42.70
2019-05-18T21:37:58.547Z,57.67
2019-05-18T21:40:28.576Z,48.70
2019-05-18T21:42:58.110Z,48.13
2019-05-18T21:45:39.687Z,57.60
2019-05-18T21:48:09.183Z,41.33
2019-05-18T21:50:38.869Z,43.50
2019-05-18T21:53:08.659Z,44.37
2019-05-18T21:55:38.165Z,44.97
2019-05-18T21:58:07.611Z,38.17
2019-05-18T22:00:37.055Z,32.17
2019-05-18T22:03:06.467Z,31.70
2019-05-18T22:05:43.887Z,31.17
2019-05-18T22:08:13.483Z,30.43
2019-05-18T22:10:44.210Z,32.70
2019-05-18T22:13:13.688Z,32.03
2019-05-18T22:15:43.565Z,31.63
2019-05-18T22:18:24.027Z,30.63
2019-05-18T22:20:44.641Z,28.80
2019-05-18T22:23:15.038Z,32.17
2019-05-18T22:25:44.543Z,29.67
2019-05-18T22:28:14.216Z,26.40
2019-05-18T22:30:44.730Z,27.80
2019-05-18T22:33:15.263Z,32.30
2019-05-18T22:35:45.914Z,31.50
2019-05-18T22:38:16.559Z,27.77
2019-05-18T22:40:45.948Z,27.87
2019-05-18T22:43:15.251Z,24.93
2019-05-18T22:45:45.611Z,31.97
2019-05-18T22:48:14.928Z,28.07
2019-05-18T22:50:44.463Z,31.43
2019-05-18T22:53:13.885Z,34.00
2019-05-18T22:55:44.538Z,36.47
2019-05-18T22:58:14.084Z,30.10
2019-05-18T23:00:43.453Z,37.00
2019-05-18T23:03:12.738Z,31.53
2019-05-18T23:05:41.965Z,33.87
2019-05-18T23:08:11.266Z,31.73
2019-05-18T23:10:40.611Z,33.33
2019-05-18T23:13:09.929Z,32.73
2019-05-18T23:15:39.271Z,30.00
2019-05-18T23:18:08.696Z,34.57
2019-05-18T23:20:37.932Z,35.93
2019-05-18T23:23:08.807Z,32.23
2019-05-18T23:25:39.245Z,36.93
2019-05-18T23:28:08.709Z,32.40
2019-05-18T23:30:37.959Z,33.73
2019-05-18T23:33:07.179Z,37.07
2019-05-18T23:35:36.463Z,43.93
2019-05-18T23:38:05.714Z,47.40
2019-05-18T23:40:36.051Z,44.60
2019-05-18T23:43:05.390Z,47.53
2019-05-18T23:45:34.801Z,40.97
2019-05-18T23:48:04.104Z,39.80
2019-05-18T23:50:33.546Z,38.90
2019-05-18T23:53:04.922Z,32.13
2019-05-18T23:55:34.336Z,36.90
2019-05-18T23:58:05.920Z,33.40
